Pagina principale
METAR-TAF:

METAR-TAF

Aeroporti :

Aerodromo Hinterstoisser-Zeltweg

Zeltweg, Austria

latitudine: 47-12N, longitudine: 014-45E, altezza: 677 m

Osservazione

Il bollettino è stato emesso 29 minuti fa, alle 10:50 UTC
Vento 2 kt da direzioni variabili
Temperature 13°C
Umidità 67%
Pressione 1022 hPa

METAR: LOXZ 151050Z VRB02KT 20KM FEW060CU SCT090AC BKN130AC 13/07 Q1022 NOSIG

Ora: 13:19 (11:19 UTC)

Previsione

Il bollettino è stato emesso 3 ore e 4 minuti fa, alle 08:15 UTC
Previsione valida dal 15 alle 09 UTC al 15 alle 18 UTC
Vento 3 kt da direzioni variabili
Visibilità 10 km o più
Poco nuvoloso ad un'altezza di 5000 ft
Nubi sparse ad un'altezza di 12000 ft
Nuvoloso ad un'altezza di 18000 ft
Probabilità 40% :
Temporaneamente
dal 15 alle 12 UTC al 15 alle 17 UTC
Vento 12 kt da sud/sud-ovest

TAF: LOXZ 150815Z 1509/1518 VRB03KT 9999 FEW050 SCT120 BKN180 PROB40 TEMPO 1512/1517 20012KT

Osservazioni e previsioni meteorologiche di più di 4000 aeroporti (messaggi METAR e TAF).

Le stazioni disponibili sono rappresentate dai dischi gialli e rossi sulla carta.

Puntare il mouse per vedere il nome della stazione.

Clicca sopra per visualizzare le osservazioni e previsioni meteorologiche.

Per cambiare la mappa : fare clic sui pulsanti verdi con una croce nera per ingrandire, il pulsante verde con un trattino per diminuire, o sulla freccia verde per le mappe adiacenti.


METAR-TAF: